createdAt,value
2023-02-25T00:02:02.802Z,19.15
2023-02-25T00:04:32.501Z,16.80
2023-02-25T00:07:03.285Z,16.10
2023-02-25T00:09:32.389Z,22.08
2023-02-25T00:12:01.038Z,13.63
2023-02-25T00:14:29.674Z,18.38
2023-02-25T00:16:58.200Z,15.30
2023-02-25T00:19:27.665Z,25.08
2023-02-25T00:21:56.429Z,18.75
2023-02-25T00:24:26.292Z,17.73
2023-02-25T00:26:54.741Z,15.40
2023-02-25T00:29:23.228Z,25.40
2023-02-25T00:31:51.779Z,17.23
2023-02-25T00:34:20.453Z,15.40
2023-02-25T00:36:50.081Z,19.05
2023-02-25T00:39:18.648Z,18.50
2023-02-25T00:41:48.354Z,19.40
2023-02-25T00:44:16.981Z,22.80
2023-02-25T00:46:45.732Z,17.13
2023-02-25T00:49:26.997Z,16.52
2023-02-25T00:52:00.463Z,13.80
2023-02-25T00:54:29.104Z,21.50
2023-02-25T00:56:58.872Z,17.67
2023-02-25T00:59:27.596Z,17.15
2023-02-25T01:01:56.054Z,18.65
2023-02-25T01:04:24.730Z,16.92
2023-02-25T01:06:54.122Z,16.45
2023-02-25T01:09:22.830Z,8.60
2023-02-25T01:11:51.325Z,24.88
2023-02-25T01:14:23.182Z,14.38
2023-02-25T01:16:53.063Z,14.15
2023-02-25T01:19:23.642Z,20.08
2023-02-25T01:21:56.003Z,17.63
2023-02-25T01:24:27.565Z,17.73
2023-02-25T01:26:58.699Z,20.98
2023-02-25T01:29:31.023Z,20.13
2023-02-25T01:32:02.096Z,32.38
2023-02-25T01:34:30.954Z,18.15
2023-02-25T01:36:59.703Z,15.00
2023-02-25T01:39:29.095Z,22.30
2023-02-25T01:41:58.671Z,22.10
2023-02-25T01:44:33.417Z,20.27
2023-02-25T01:47:03.813Z,11.88
2023-02-25T01:49:35.485Z,17.60
2023-02-25T01:52:08.144Z,23.08
2023-02-25T01:54:38.392Z,18.35
2023-02-25T01:57:09.139Z,12.77
2023-02-25T01:59:40.262Z,19.42
2023-02-25T02:02:09.719Z,22.40
2023-02-25T02:04:39.547Z,26.60
2023-02-25T02:07:08.200Z,22.77
2023-02-25T02:09:37.737Z,21.63
2023-02-25T02:12:07.920Z,20.67
2023-02-25T02:14:41.403Z,15.13
2023-02-25T02:17:24.039Z,15.18
2023-02-25T02:20:09.857Z,19.83
2023-02-25T02:22:46.918Z,18.75
2023-02-25T02:26:12.110Z,20.45
2023-02-25T02:29:17.956Z,16.70
2023-02-25T02:31:55.551Z,12.48
2023-02-25T02:34:36.690Z,15.10
2023-02-25T02:37:15.621Z,13.27
2023-02-25T02:39:54.029Z,20.25
2023-02-25T02:42:31.875Z,17.73
2023-02-25T02:45:05.825Z,22.88
2023-02-25T02:47:39.387Z,14.45
2023-02-25T02:50:10.998Z,19.80
2023-02-25T02:52:44.324Z,16.73
2023-02-25T02:55:22.581Z,20.38
2023-02-25T02:57:54.705Z,17.50
2023-02-25T03:00:29.037Z,19.75
2023-02-25T03:03:03.534Z,27.92
2023-02-25T03:05:35.445Z,21.40
2023-02-25T03:08:08.758Z,20.05
2023-02-25T03:10:38.255Z,12.85
2023-02-25T03:13:06.826Z,19.33
2023-02-25T03:15:36.380Z,20.95
2023-02-25T03:18:11.269Z,25.15
2023-02-25T03:20:43.988Z,22.33
2023-02-25T03:23:27.417Z,17.20
2023-02-25T03:26:10.455Z,23.02
2023-02-25T03:28:40.149Z,18.13
2023-02-25T03:31:15.214Z,20.33
2023-02-25T03:33:49.843Z,25.25
2023-02-25T03:36:23.800Z,18.75
2023-02-25T03:38:57.419Z,14.20
2023-02-25T03:41:31.278Z,33.92
2023-02-25T03:44:01.108Z,17.25
2023-02-25T03:46:31.705Z,14.35
2023-02-25T03:49:04.071Z,22.00
2023-02-25T03:51:36.771Z,19.77
2023-02-25T03:54:11.576Z,32.22
2023-02-25T03:56:47.252Z,16.17
2023-02-25T03:59:16.907Z,27.95
2023-02-25T04:01:48.174Z,23.85
2023-02-25T04:04:18.251Z,22.77
2023-02-25T04:06:47.244Z,17.92
2023-02-25T04:09:15.691Z,16.05
2023-02-25T04:11:44.088Z,17.52
2023-02-25T04:14:12.596Z,31.00
2023-02-25T04:16:41.122Z,30.35
2023-02-25T04:19:23.120Z,19.15
2023-02-25T04:22:37.268Z,19.85
2023-02-25T04:25:11.652Z,24.85
2023-02-25T04:27:43.708Z,23.30
2023-02-25T04:30:16.308Z,23.02
2023-02-25T04:32:46.964Z,26.45
2023-02-25T04:35:16.029Z,26.88
2023-02-25T04:37:45.592Z,16.98
2023-02-25T04:40:17.887Z,16.90
2023-02-25T04:42:46.728Z,16.77
2023-02-25T04:45:16.563Z,20.05
2023-02-25T04:47:46.162Z,18.80
2023-02-25T04:50:14.623Z,23.27
2023-02-25T04:52:43.562Z,15.30
2023-02-25T04:55:13.070Z,26.92
2023-02-25T04:57:43.419Z,27.60
2023-02-25T05:00:19.114Z,17.58
2023-02-25T05:02:48.969Z,19.80
2023-02-25T05:05:19.142Z,17.05
2023-02-25T05:07:48.128Z,28.73
2023-02-25T05:10:19.735Z,23.80
2023-02-25T05:12:49.798Z,14.70
2023-02-25T05:15:18.580Z,23.73
2023-02-25T05:17:47.787Z,18.67
2023-02-25T05:20:16.696Z,20.85
2023-02-25T05:22:45.911Z,21.27
2023-02-25T05:25:15.042Z,21.08
2023-02-25T05:27:43.581Z,19.65
2023-02-25T05:30:14.796Z,25.55
2023-02-25T05:32:44.152Z,15.13
2023-02-25T05:35:17.633Z,18.35
2023-02-25T05:37:46.191Z,22.02
2023-02-25T05:40:15.053Z,19.52
2023-02-25T05:42:44.296Z,12.40
2023-02-25T05:45:14.655Z,24.55
2023-02-25T05:47:43.779Z,17.02
2023-02-25T05:50:12.998Z,24.95
2023-02-25T05:52:42.203Z,23.60
2023-02-25T05:55:12.416Z,22.10
2023-02-25T05:57:41.382Z,28.08
2023-02-25T06:00:14.671Z,21.17
2023-02-25T06:02:45.186Z,18.70
2023-02-25T06:05:14.202Z,20.55
2023-02-25T06:07:42.636Z,26.70
2023-02-25T06:10:12.817Z,18.45
2023-02-25T06:12:41.699Z,25.00
2023-02-25T06:15:10.557Z,17.08
2023-02-25T06:17:39.879Z,24.30
2023-02-25T06:20:11.597Z,24.10
2023-02-25T06:22:40.200Z,20.30
2023-02-25T06:25:09.615Z,26.23
2023-02-25T06:27:38.187Z,18.33
2023-02-25T06:30:08.764Z,20.27
2023-02-25T06:32:37.756Z,20.20
2023-02-25T06:35:07.847Z,17.55
2023-02-25T06:37:37.715Z,19.85
2023-02-25T06:40:08.079Z,15.73
2023-02-25T06:42:36.564Z,24.83
2023-02-25T06:45:05.923Z,25.95
2023-02-25T06:47:34.599Z,27.30
2023-02-25T06:50:03.049Z,19.13
2023-02-25T06:52:31.955Z,26.02
2023-02-25T06:55:01.782Z,30.65
2023-02-25T06:57:30.188Z,17.65
2023-02-25T06:59:58.508Z,25.13
2023-02-25T07:02:28.876Z,23.30
2023-02-25T07:04:57.656Z,27.17
2023-02-25T07:07:26.088Z,20.30
2023-02-25T07:09:54.433Z,19.55
2023-02-25T07:12:24.691Z,19.40
2023-02-25T07:14:53.143Z,19.70
2023-02-25T07:17:22.066Z,20.50
2023-02-25T07:19:50.682Z,20.55
2023-02-25T07:22:23.873Z,21.75
2023-02-25T07:24:52.619Z,19.67
2023-02-25T07:27:27.315Z,21.77
2023-02-25T07:30:05.268Z,20.77
2023-02-25T07:32:34.360Z,28.90
2023-02-25T07:35:04.486Z,24.60
2023-02-25T07:37:33.047Z,27.58
2023-02-25T07:40:01.777Z,24.50
2023-02-25T07:42:32.515Z,22.40
2023-02-25T07:45:02.279Z,24.42
2023-02-25T07:47:31.107Z,28.08
2023-02-25T07:49:59.558Z,23.88
2023-02-25T07:52:27.998Z,30.85
2023-02-25T07:54:56.599Z,22.60
2023-02-25T07:57:25.136Z,27.50
2023-02-25T07:59:54.981Z,24.02
2023-02-25T08:02:23.682Z,27.40
2023-02-25T08:04:52.460Z,19.90
2023-02-25T08:07:21.472Z,25.52
2023-02-25T08:09:50.039Z,32.63
2023-02-25T08:12:18.447Z,34.30
2023-02-25T08:14:46.836Z,19.80
2023-02-25T08:17:16.565Z,26.20
2023-02-25T08:19:45.170Z,27.88
2023-02-25T08:22:13.856Z,22.67
2023-02-25T08:24:42.507Z,15.15
2023-02-25T08:27:11.197Z,27.08
2023-02-25T08:29:39.917Z,21.75
2023-02-25T08:32:08.979Z,21.10
2023-02-25T08:34:38.997Z,19.77
2023-02-25T08:37:11.012Z,18.02
2023-02-25T08:39:39.642Z,17.88
2023-02-25T08:42:08.119Z,12.63
2023-02-25T08:44:37.058Z,15.93
2023-02-25T08:47:05.694Z,11.27
2023-02-25T08:49:34.114Z,18.70
2023-02-25T08:52:03.898Z,16.33
2023-02-25T08:54:32.581Z,9.65
2023-02-25T08:57:01.381Z,12.38
2023-02-25T08:59:36.052Z,12.88
2023-02-25T09:02:06.279Z,11.05
2023-02-25T09:04:35.780Z,10.18
2023-02-25T09:07:05.738Z,9.10
2023-02-25T09:09:34.172Z,10.65
2023-02-25T09:12:05.232Z,9.98
2023-02-25T09:14:34.985Z,15.43
2023-02-25T09:17:03.895Z,12.50
2023-02-25T09:19:38.333Z,13.02
2023-02-25T09:22:09.692Z,15.00
2023-02-25T09:24:38.530Z,9.93
2023-02-25T09:27:08.068Z,9.98
2023-02-25T09:29:38.321Z,10.45
2023-02-25T09:32:07.835Z,10.13
2023-02-25T09:34:37.842Z,14.68
2023-02-25T09:37:06.889Z,12.30
2023-02-25T09:39:36.648Z,12.07
2023-02-25T09:42:10.458Z,9.27
2023-02-25T09:44:44.539Z,14.25
2023-02-25T09:47:19.350Z,9.15
2023-02-25T09:49:53.141Z,7.68
2023-02-25T09:52:28.741Z,9.65
2023-02-25T09:55:04.520Z,9.40
2023-02-25T09:57:38.505Z,8.52
2023-02-25T10:00:17.019Z,3.58
2023-02-25T10:02:52.097Z,7.97
2023-02-25T10:05:30.201Z,9.63
2023-02-25T10:08:08.544Z,8.57
2023-02-25T10:10:48.937Z,6.10
2023-02-25T10:13:28.690Z,5.18
2023-02-25T10:16:07.234Z,5.85
2023-02-25T10:18:49.583Z,6.55
2023-02-25T10:21:31.162Z,5.63
2023-02-25T10:24:16.273Z,3.80
2023-02-25T10:26:50.458Z,3.67
2023-02-25T10:29:28.374Z,7.00
2023-02-25T10:32:00.298Z,4.65
2023-02-25T10:34:30.592Z,4.60
2023-02-25T10:37:01.041Z,6.40
2023-02-25T10:39:31.215Z,8.82
2023-02-25T10:42:01.597Z,6.10
2023-02-25T10:44:30.058Z,4.07
2023-02-25T10:47:02.849Z,8.32
2023-02-25T10:49:38.116Z,9.50
2023-02-25T10:52:10.225Z,7.22
2023-02-25T10:54:47.956Z,5.68
2023-02-25T10:57:25.780Z,10.60
2023-02-25T11:00:01.206Z,6.03
2023-02-25T11:02:31.814Z,10.88
2023-02-25T11:05:00.386Z,9.35
2023-02-25T11:07:34.105Z,11.60
2023-02-25T11:10:15.596Z,11.13
2023-02-25T11:12:47.107Z,11.98
2023-02-25T11:15:46.589Z,4.85
2023-02-25T11:20:54.077Z,11.85
2023-02-25T11:23:28.318Z,8.93
2023-02-25T11:25:57.747Z,8.93
2023-02-25T11:28:34.095Z,8.35
2023-02-25T11:31:11.272Z,5.40
2023-02-25T11:33:43.627Z,8.00
2023-02-25T11:36:13.238Z,9.13
2023-02-25T11:38:43.212Z,7.50
2023-02-25T11:41:21.553Z,6.93
2023-02-25T11:46:23.851Z,11.48
2023-02-25T11:48:56.301Z,8.30
2023-02-25T11:51:27.735Z,13.52
2023-02-25T11:54:10.095Z,10.98
2023-02-25T11:56:43.933Z,11.23
2023-02-25T11:59:29.297Z,6.65
2023-02-25T12:02:20.677Z,9.73
2023-02-25T12:05:07.347Z,11.55
2023-02-25T12:08:13.830Z,13.13
2023-02-25T12:11:26.532Z,6.47
2023-02-25T12:14:18.854Z,8.98
2023-02-25T12:17:21.476Z,9.40
2023-02-25T12:20:34.175Z,13.07
2023-02-25T12:23:39.084Z,7.80
2023-02-25T12:26:14.516Z,11.98
2023-02-25T12:29:03.533Z,8.45
2023-02-25T12:32:04.275Z,6.55
2023-02-25T12:35:06.962Z,4.47
2023-02-25T12:37:55.818Z,7.45
2023-02-25T12:40:39.592Z,4.97
2023-02-25T12:43:25.957Z,5.10
2023-02-25T12:46:12.130Z,9.82
2023-02-25T12:49:05.454Z,8.15
2023-02-25T12:52:04.214Z,9.82
2023-02-25T12:54:58.113Z,5.72
2023-02-25T12:57:42.164Z,8.73
2023-02-25T13:00:44.709Z,8.38
2023-02-25T13:03:49.753Z,10.13
2023-02-25T13:06:47.744Z,9.80
2023-02-25T13:09:48.573Z,7.18
2023-02-25T13:12:34.004Z,7.53
2023-02-25T13:15:10.485Z,7.00
2023-02-25T13:17:56.090Z,7.55
2023-02-25T13:20:51.612Z,7.60
2023-02-25T13:23:34.640Z,5.55
2023-02-25T13:26:19.593Z,9.32
2023-02-25T13:29:28.668Z,5.85
2023-02-25T13:32:16.089Z,4.90
2023-02-25T13:34:51.957Z,5.82
2023-02-25T13:37:37.742Z,5.82
2023-02-25T13:40:32.432Z,9.30
2023-02-25T13:43:19.043Z,2.70
2023-02-25T13:45:58.048Z,4.85
2023-02-25T13:48:50.845Z,5.28
2023-02-25T13:52:07.806Z,5.85
2023-02-25T13:55:07.737Z,3.83
2023-02-25T14:00:43.441Z,7.25
2023-02-25T14:03:49.055Z,4.18
2023-02-25T14:06:30.468Z,4.85
2023-02-25T14:09:14.966Z,4.22
2023-02-25T14:11:57.861Z,5.75
2023-02-25T14:14:54.565Z,3.30
2023-02-25T14:17:45.301Z,3.38
2023-02-25T14:20:29.179Z,3.55
2023-02-25T14:23:02.359Z,2.60
2023-02-25T14:25:45.807Z,4.75
2023-02-25T14:28:23.622Z,6.45
2023-02-25T14:31:08.218Z,4.18
2023-02-25T14:33:52.942Z,3.45
2023-02-25T14:36:36.740Z,6.75
2023-02-25T14:39:23.703Z,2.83
2023-02-25T14:42:05.608Z,4.93
2023-02-25T14:44:41.836Z,3.50
2023-02-25T14:47:14.316Z,4.43
2023-02-25T14:49:55.396Z,5.15
2023-02-25T14:52:50.775Z,6.60
2023-02-25T14:55:50.254Z,6.18
2023-02-25T14:58:44.881Z,7.20
2023-02-25T15:01:38.629Z,1.98
2023-02-25T15:04:35.476Z,4.88
2023-02-25T15:07:20.550Z,2.88
2023-02-25T15:10:18.434Z,4.30
2023-02-25T15:13:27.256Z,6.63
2023-02-25T15:16:29.712Z,10.65
2023-02-25T15:19:27.057Z,5.28
2023-02-25T15:22:19.358Z,5.45
2023-02-25T15:24:48.801Z,9.23
2023-02-25T15:27:43.077Z,5.50
2023-02-25T15:30:13.455Z,3.40
2023-02-25T15:32:54.179Z,7.13
2023-02-25T15:35:25.281Z,6.65
2023-02-25T15:38:13.624Z,5.45
2023-02-25T15:40:47.198Z,9.73
2023-02-25T15:43:40.888Z,7.35
2023-02-25T15:46:43.654Z,6.90
2023-02-25T15:49:29.129Z,4.13
2023-02-25T15:51:59.474Z,6.32
2023-02-25T15:54:51.140Z,6.57
2023-02-25T15:57:42.039Z,7.85
2023-02-25T16:00:44.365Z,4.53
2023-02-25T16:03:40.202Z,5.40
2023-02-25T16:06:14.357Z,2.95
2023-02-25T16:08:53.149Z,6.50
2023-02-25T16:11:35.728Z,7.78
2023-02-25T16:14:07.992Z,7.25
2023-02-25T16:16:40.678Z,8.35
2023-02-25T16:19:16.948Z,10.98
2023-02-25T16:21:49.076Z,5.85
2023-02-25T16:24:19.883Z,5.32
2023-02-25T16:26:58.781Z,7.72
2023-02-25T16:29:46.316Z,8.20
2023-02-25T16:32:26.633Z,4.38
2023-02-25T16:35:00.719Z,5.40
2023-02-25T16:37:39.649Z,5.28
2023-02-25T16:40:15.855Z,7.63
2023-02-25T16:42:47.039Z,6.20
2023-02-25T16:45:25.929Z,4.30
2023-02-25T16:48:01.287Z,3.67
2023-02-25T16:50:32.523Z,8.10
2023-02-25T16:53:03.324Z,7.65
2023-02-25T16:55:39.877Z,4.07
2023-02-25T16:58:24.144Z,5.30
2023-02-25T17:00:55.033Z,11.98
2023-02-25T17:03:27.475Z,11.60
2023-02-25T17:06:06.232Z,13.07
2023-02-25T17:08:35.508Z,11.60
2023-02-25T17:11:06.741Z,7.40
2023-02-25T17:13:41.852Z,10.05
2023-02-25T17:16:21.286Z,6.00
2023-02-25T17:18:54.543Z,6.47
2023-02-25T17:21:26.120Z,3.03
2023-02-25T17:23:54.752Z,6.03
2023-02-25T17:26:26.047Z,5.50
2023-02-25T17:28:58.738Z,4.47
2023-02-25T17:31:30.377Z,6.97
2023-02-25T17:34:01.161Z,7.05
2023-02-25T17:36:35.360Z,8.82
2023-02-25T17:39:07.406Z,6.22
2023-02-25T17:41:37.150Z,7.20
2023-02-25T17:44:07.657Z,6.88
2023-02-25T17:46:39.393Z,7.00
2023-02-25T17:49:21.396Z,6.50
2023-02-25T17:51:55.726Z,7.53
2023-02-25T17:54:27.482Z,5.25
2023-02-25T17:56:59.980Z,4.63
2023-02-25T17:59:38.398Z,6.32
2023-02-25T18:02:28.887Z,6.78
2023-02-25T18:05:22.291Z,8.55
2023-02-25T18:08:10.734Z,5.28
2023-02-25T18:10:52.380Z,8.57
2023-02-25T18:13:26.160Z,5.78
2023-02-25T18:16:31.340Z,6.03
2023-02-25T18:19:01.362Z,13.45
2023-02-25T18:21:30.808Z,5.75
2023-02-25T18:24:01.601Z,8.70
2023-02-25T18:26:53.322Z,6.85
2023-02-25T18:29:24.267Z,8.38
2023-02-25T18:31:53.596Z,8.48
2023-02-25T18:34:22.204Z,4.55
2023-02-25T18:36:55.259Z,6.18
2023-02-25T18:39:27.101Z,8.18
2023-02-25T18:41:58.181Z,9.02
2023-02-25T18:44:30.493Z,10.27
2023-02-25T18:47:07.032Z,8.88
2023-02-25T18:49:35.819Z,7.30
2023-02-25T18:52:04.605Z,8.07
2023-02-25T18:54:34.354Z,8.80
2023-02-25T18:57:04.221Z,8.73
2023-02-25T18:59:34.158Z,8.68
2023-02-25T19:02:03.321Z,10.98
2023-02-25T19:04:31.779Z,9.73
2023-02-25T19:07:00.232Z,11.02
2023-02-25T19:09:29.091Z,14.30
2023-02-25T19:11:58.993Z,12.57
2023-02-25T19:14:28.277Z,13.43
2023-02-25T19:16:59.624Z,16.00
2023-02-25T19:19:29.557Z,10.00
2023-02-25T19:21:58.762Z,13.18
2023-02-25T19:24:28.974Z,12.75
2023-02-25T19:27:00.758Z,11.27
2023-02-25T19:29:29.269Z,9.50
2023-02-25T19:31:59.164Z,13.13
2023-02-25T19:34:28.024Z,10.43
2023-02-25T19:36:56.835Z,14.82
2023-02-25T19:39:25.680Z,12.68
2023-02-25T19:41:54.484Z,9.35
2023-02-25T19:44:38.644Z,7.65
2023-02-25T19:47:08.966Z,7.65
2023-02-25T19:49:37.831Z,11.25
2023-02-25T19:52:07.139Z,9.75
2023-02-25T19:54:36.505Z,9.98
2023-02-25T19:57:05.586Z,11.98
2023-02-25T19:59:42.363Z,11.90
2023-02-25T20:02:14.387Z,13.25
2023-02-25T20:04:43.908Z,14.55
2023-02-25T20:07:15.921Z,15.32
2023-02-25T20:09:44.788Z,9.85
2023-02-25T20:12:14.026Z,20.30
2023-02-25T20:14:43.182Z,9.43
2023-02-25T20:17:13.326Z,11.38
2023-02-25T20:19:42.607Z,8.70
2023-02-25T20:22:12.574Z,17.27
2023-02-25T20:24:43.505Z,12.27
2023-02-25T20:27:13.049Z,12.20
2023-02-25T20:29:42.117Z,7.32
2023-02-25T20:32:11.805Z,9.82
2023-02-25T20:34:42.401Z,9.40
2023-02-25T20:37:15.661Z,15.40
2023-02-25T20:39:55.416Z,14.45
2023-02-25T20:42:27.682Z,8.95
2023-02-25T20:44:58.183Z,10.95
2023-02-25T20:47:30.217Z,8.65
2023-02-25T20:50:00.889Z,14.68
2023-02-25T20:52:32.314Z,8.75
2023-02-25T20:55:01.234Z,5.30
2023-02-25T20:57:30.363Z,10.07
2023-02-25T20:59:59.184Z,6.35
2023-02-25T21:02:27.929Z,13.10
2023-02-25T21:04:56.656Z,7.85
2023-02-25T21:07:27.002Z,7.95
2023-02-25T21:09:56.128Z,6.20
2023-02-25T21:12:25.155Z,9.52
2023-02-25T21:14:54.231Z,9.10
2023-02-25T21:17:23.145Z,11.07
2023-02-25T21:19:53.572Z,7.53
2023-02-25T21:22:22.150Z,10.07
2023-02-25T21:24:53.331Z,5.60
2023-02-25T21:27:24.011Z,10.93
2023-02-25T21:29:53.576Z,10.13
2023-02-25T21:32:22.736Z,8.73
2023-02-25T21:34:51.834Z,4.50
2023-02-25T21:37:20.686Z,8.55
2023-02-25T21:39:49.406Z,5.88
2023-02-25T21:42:19.602Z,7.97
2023-02-25T21:44:48.116Z,8.27
2023-02-25T21:47:17.812Z,7.97
2023-02-25T21:49:46.537Z,5.75
2023-02-25T21:52:16.561Z,12.55
2023-02-25T21:54:47.472Z,5.75
2023-02-25T21:57:19.309Z,5.68
2023-02-25T21:59:53.759Z,3.33
2023-02-25T22:02:23.191Z,6.20
2023-02-25T22:04:53.527Z,9.85
2023-02-25T22:07:23.629Z,6.55
2023-02-25T22:09:51.985Z,9.23
2023-02-25T22:12:20.446Z,5.05
2023-02-25T22:14:50.308Z,14.32
2023-02-25T22:17:19.204Z,4.10
2023-02-25T22:19:49.889Z,10.93
2023-02-25T22:22:20.784Z,13.45
2023-02-25T22:24:49.344Z,4.32
2023-02-25T22:27:20.270Z,10.75
2023-02-25T22:29:50.078Z,11.75
2023-02-25T22:32:18.506Z,5.90
2023-02-25T22:34:47.025Z,7.35
2023-02-25T22:37:15.678Z,9.80
2023-02-25T22:39:44.197Z,7.68
2023-02-25T22:42:12.722Z,8.70
2023-02-25T22:44:41.160Z,6.65
2023-02-25T22:47:10.936Z,7.90
2023-02-25T22:49:39.375Z,8.70
2023-02-25T22:52:07.834Z,13.18
2023-02-25T22:54:36.400Z,6.07
2023-02-25T22:57:04.936Z,7.85
2023-02-25T22:59:33.451Z,7.88
2023-02-25T23:02:02.750Z,7.68
2023-02-25T23:04:32.787Z,12.10
2023-02-25T23:07:01.782Z,8.60
2023-02-25T23:09:30.184Z,5.43
2023-02-25T23:11:59.823Z,7.15
2023-02-25T23:14:28.793Z,4.53
2023-02-25T23:16:57.408Z,10.63
2023-02-25T23:19:25.770Z,10.73
2023-02-25T23:21:55.491Z,9.23
2023-02-25T23:24:23.849Z,7.38
2023-02-25T23:26:54.199Z,6.90
2023-02-25T23:29:22.819Z,9.30
2023-02-25T23:31:51.372Z,9.93
2023-02-25T23:34:22.809Z,11.98
2023-02-25T23:36:51.862Z,5.15
2023-02-25T23:39:23.577Z,7.20
2023-02-25T23:41:52.090Z,8.80
2023-02-25T23:44:20.689Z,4.32
2023-02-25T23:46:49.585Z,6.18
2023-02-25T23:49:18.300Z,7.57
2023-02-25T23:51:48.534Z,5.07
2023-02-25T23:54:18.951Z,4.68
2023-02-25T23:56:49.804Z,8.65
2023-02-25T23:59:18.569Z,5.70
